Pagrindinis puslapis
METAR-TAF:

METAR-TAF

Oro uostai :

Batervortas, Malaizija

platuma: 05-27-58N, ilguma: 100-23-28E, Aukštis: 2 m

Dabartinis oras

Ataskaita buvo paskelbta 1 valandą ir 6 minutes, ne 19:00 UTC
Vėjas 3 kt iš Pietų/Pietryčių, svyruoja nuo Rytų/Pietryčių ir Pietų/Pietvakarių
Temperatūra 26°C
Drėgmė 94%
Slėgis 1008 hPa
Matomumas: 8000 m
Mažai debesys ne aukštis 1000 ft

METAR: WMKB 061900Z 15003KT 120V200 8000 FEW010 26/25 Q1008 NOSIG

Laikas: 04:06 (20:06 UTC)

Prognozė

Ataskaita buvo paskelbta 3 valandos ir 6 minutes, ne 17:00 UTC
Prognozė galioja nuo 06 metu 18 UTC su 07 metu 18 UTC
Vėjas 5 kt iš Rytų
Matomumas: 8000 m
Mažai debesys ne aukštis 1900 ft
Tapsmas
nuo 07 metu 04 UTC su 07 metu 06 UTC
Vėjas 10 kt iš Vakarų/Šiaurės Vakarų
Laikinai
nuo 07 metu 05 UTC su 07 metu 09 UTC
Matomumas: 5000 m
Mažai debesys ne aukštis 1700 ft, Liūtiniai kamuoliniai debesys.
perkūnija, lietus

TAF: WMKB 061700Z 0618/0718 08005KT 8000 FEW019 BECMG 0704/0706 30010KT TEMPO 0705/0709 5000 TSRA FEW017CB

Orai ataskaitas ir orų prognozės (METAR, TAF).

turimą stotys yra geltonos ir raudonos taškus žemėlapyje.

Perkelti pele per norėdami pamatyti stoties vardą.

Tada spustelėkite, norėdami matyti oro stebėjimo ir prognozės.

Norėdami pakeisti žemėlapį: spustelėkite ant žalios mygtukų su juodo kryžiaus žemyn,; žalią mygtuką su brūkšneliu, jei norite nutolinti; arba žalių rodyklių gretimoms žemėlapius.


METAR-TAF: